Time;durP1;ratioP1;P1;durP2;ratioP2;P2;SDS_P1;SDS_P2;PMS_P1;PMS_P2;Temp;Humidity;BMP_temperature;BMP_pressure;BME280_temperature;BME280_humidity;BME280_pressure;Samples;Min_cycle;Max_cycle;Signal;HPM_P1;HPM_P2
2023/01/07 00:01:12;;;;;;;12.57;6.65;;;;;;;11.15;100.00;101340.66;5114717;28;20031;-77
2023/01/07 00:03:39;;;;;;;17.23;7.70;;;;;;;11.01;100.00;101337.09;5114350;28;20466;-77
2023/01/07 00:06:13;;;;;;;15.45;7.65;;;;;;;11.17;100.00;101325.88;5095244;28;20118;-77
2023/01/07 00:08:42;;;;;;;12.75;7.20;;;;;;;11.07;100.00;101333.03;5113796;27;20063;-77
2023/01/07 00:11:09;;;;;;;12.13;7.47;;;;;;;11.16;100.00;101320.50;5113286;28;20070;-77
2023/01/07 00:13:35;;;;;;;11.05;6.95;;;;;;;11.05;100.00;101321.28;5114100;28;20042;-77
2023/01/07 00:16:03;;;;;;;11.30;7.35;;;;;;;11.09;100.00;101317.34;5094565;28;20036;-77
2023/01/07 00:18:29;;;;;;;11.48;6.80;;;;;;;10.96;100.00;101314.63;5112545;28;20538;-77
2023/01/07 00:20:59;;;;;;;17.75;7.70;;;;;;;10.94;100.00;101319.34;5111003;28;20036;-77
2023/01/07 00:23:26;;;;;;;17.25;6.95;;;;;;;10.93;100.00;101317.59;5093897;28;20039;-77
2023/01/07 00:25:58;;;;;;;13.02;7.05;;;;;;;10.96;100.00;101319.25;5109068;28;20036;-77
2023/01/07 00:28:23;;;;;;;11.77;6.37;;;;;;;10.92;100.00;101326.81;5110412;28;20101;-77
2023/01/07 00:30:48;;;;;;;22.55;7.80;;;;;;;10.89;100.00;101318.81;5111184;28;20036;-77
2023/01/07 00:33:15;;;;;;;14.93;7.28;;;;;;;10.85;100.00;101309.97;5109729;28;20043;-77
2023/01/07 00:35:43;;;;;;;14.45;7.25;;;;;;;10.88;100.00;101313.44;5110585;28;20032;-76
2023/01/07 00:38:09;;;;;;;10.77;6.25;;;;;;;10.94;100.00;101315.75;5109087;28;20050;-77
2023/01/07 00:40:34;;;;;;;11.32;6.60;;;;;;;10.95;100.00;101314.75;5109255;28;20039;-77
2023/01/07 00:43:00;;;;;;;14.10;7.47;;;;;;;10.90;100.00;101311.47;5094894;28;20035;-77
2023/01/07 00:45:28;;;;;;;12.32;7.03;;;;;;;10.92;100.00;101306.75;5110449;28;20142;-77
2023/01/07 00:47:56;;;;;;;12.50;6.57;;;;;;;10.96;100.00;101305.53;5111799;28;20585;-77
2023/01/07 00:50:24;;;;;;;20.98;7.13;;;;;;;10.99;100.00;101308.94;5111622;28;20467;-77
2023/01/07 00:52:49;;;;;;;10.35;7.22;;;;;;;11.01;100.00;101308.81;5113808;28;20055;-77
2023/01/07 00:55:15;;;;;;;11.40;6.82;;;;;;;10.89;100.00;101294.16;5112902;28;20116;-77
2023/01/07 00:57:41;;;;;;;11.70;7.45;;;;;;;11.02;100.00;101307.84;5112392;28;20039;-77
2023/01/07 01:00:09;;;;;;;21.83;7.15;;;;;;;11.09;100.00;101295.41;5077982;28;20031;-77
2023/01/07 01:02:34;;;;;;;23.42;7.25;;;;;;;11.10;100.00;101297.19;5118469;28;20027;-77
2023/01/07 01:05:00;;;;;;;13.73;6.80;;;;;;;11.09;100.00;101292.69;5125128;27;20051;-77
2023/01/07 01:07:25;;;;;;;15.35;6.90;;;;;;;11.10;100.00;101285.31;5115601;28;20038;-77
2023/01/07 01:09:51;;;;;;;10.60;6.65;;;;;;;11.12;100.00;101294.34;5116056;28;20517;-76
2023/01/07 01:12:16;;;;;;;14.82;7.07;;;;;;;11.06;100.00;101289.31;5117857;28;20419;-76
2023/01/07 01:14:42;;;;;;;24.35;8.43;;;;;;;11.07;100.00;101280.06;5117628;28;20039;-77
2023/01/07 01:17:07;;;;;;;12.13;6.85;;;;;;;11.14;100.00;101276.78;5115260;27;20077;-77
2023/01/07 01:19:32;;;;;;;15.20;6.80;;;;;;;11.15;100.00;101269.41;5114202;27;20047;-77
2023/01/07 01:21:58;;;;;;;16.33;6.57;;;;;;;11.14;100.00;101278.66;5098986;28;20050;-77
2023/01/07 01:24:23;;;;;;;13.13;6.85;;;;;;;11.16;100.00;101266.56;5099221;28;20050;-77
2023/01/07 01:26:49;;;;;;;16.35;6.90;;;;;;;11.22;100.00;101273.47;5116190;28;20061;-77
2023/01/07 01:29:14;;;;;;;12.13;6.88;;;;;;;11.16;100.00;101271.19;5115138;28;20035;-77
2023/01/07 01:31:39;;;;;;;16.20;6.07;;;;;;;11.18;100.00;101263.69;5115759;28;20088;-76
2023/01/07 01:34:05;;;;;;;12.18;6.05;;;;;;;11.20;100.00;101265.34;5104651;28;20051;-77
2023/01/07 01:36:30;;;;;;;14.63;6.60;;;;;;;11.16;100.00;101258.34;5117274;28;20040;-77
2023/01/07 01:38:56;;;;;;;9.73;6.07;;;;;;;11.10;100.00;101264.31;5095907;28;20486;-77
2023/01/07 01:41:22;;;;;;;10.23;6.05;;;;;;;11.13;100.00;101258.56;5114867;28;20490;-77
2023/01/07 01:43:48;;;;;;;14.15;6.30;;;;;;;11.21;100.00;101256.16;5114092;28;20035;-77
2023/01/07 01:46:18;;;;;;;12.75;6.20;;;;;;;11.22;100.00;101257.88;5114628;28;20498;-79
2023/01/07 01:48:55;;;;;;;10.73;6.22;;;;;;;11.28;100.00;101253.81;5116813;28;20055;-77
2023/01/07 01:51:25;;;;;;;16.55;5.80;;;;;;;11.28;100.00;101256.56;5118717;28;20110;-78
2023/01/07 01:53:53;;;;;;;12.75;5.72;;;;;;;11.21;100.00;101258.00;5114587;28;20104;-78
2023/01/07 01:56:23;;;;;;;8.82;6.35;;;;;;;11.29;100.00;101261.03;5117459;28;20035;-78
2023/01/07 01:58:54;;;;;;;15.10;6.00;;;;;;;11.25;100.00;101255.88;5099581;28;20038;-77
2023/01/07 02:01:20;;;;;;;10.05;6.03;;;;;;;11.10;100.00;101244.22;5116517;28;20043;-78
2023/01/07 02:03:47;;;;;;;13.95;6.38;;;;;;;11.16;100.00;101249.25;5100325;28;20028;-77
2023/01/07 02:06:20;;;;;;;10.95;6.35;;;;;;;11.19;100.00;101246.28;5115931;28;20149;-77
2023/01/07 02:08:45;;;;;;;;;;;;;;;11.13;100.00;101252.22;5114787;27;20043;-78
2023/01/07 02:11:56;;;;;;;10.95;5.97;;;;;;;11.09;100.00;101247.97;5120245;28;19972;-79
2023/01/07 02:14:39;;;;;;;12.50;6.35;;;;;;;11.04;100.00;101256.53;5092001;28;20047;-77
2023/01/07 02:17:29;;;;;;;9.02;6.15;;;;;;;10.97;100.00;101253.38;5114441;28;20046;-77
2023/01/07 02:20:22;;;;;;;14.00;6.40;;;;;;;10.97;100.00;101247.00;5109928;28;20063;-76
2023/01/07 02:23:25;;;;;;;12.85;6.70;;;;;;;10.97;100.00;101242.41;5115792;28;20035;-76
2023/01/07 02:26:13;;;;;;;10.98;5.72;;;;;;;11.00;100.00;101242.19;5115712;27;20039;-76
2023/01/07 02:29:16;;;;;;;13.98;6.65;;;;;;;10.98;100.00;101248.75;5073248;28;20437;-76
2023/01/07 02:31:47;;;;;;;15.68;7.07;;;;;;;11.00;100.00;101242.19;5082374;28;20477;-76
2023/01/07 02:34:38;;;;;;;12.30;7.10;;;;;;;10.96;100.00;101243.41;5115414;28;20024;-76
2023/01/07 02:37:24;;;;;;;25.63;7.47;;;;;;;10.98;100.00;101244.16;5115046;28;20082;-76
2023/01/07 02:40:05;;;;;;;17.15;7.60;;;;;;;10.94;100.00;101244.53;5134151;27;20050;-76
2023/01/07 02:42:47;;;;;;;14.65;6.97;;;;;;;10.94;100.00;101248.13;5119804;27;20062;-76
2023/01/07 02:45:21;;;;;;;12.40;7.05;;;;;;;11.09;100.00;101237.88;5135888;27;20518;-76
2023/01/07 02:47:53;;;;;;;14.52;6.53;;;;;;;10.99;100.00;101239.56;5099299;27;20027;-76
2023/01/07 02:50:18;;;;;;;14.30;6.95;;;;;;;11.05;100.00;101233.59;5133693;27;20056;-76
2023/01/07 02:52:44;;;;;;;9.43;6.43;;;;;;;10.99;100.00;101229.47;5136618;27;20486;-76
2023/01/07 02:55:15;;;;;;;10.85;6.10;;;;;;;11.01;100.00;101230.22;5135731;27;20043;-76
2023/01/07 02:57:56;;;;;;;12.48;6.28;;;;;;;11.02;100.00;101228.38;5115915;27;20023;-76
2023/01/07 03:00:38;;;;;;;15.20;6.88;;;;;;;10.99;100.00;101229.47;5134719;27;20039;-76
2023/01/07 03:03:12;;;;;;;13.88;6.72;;;;;;;10.97;100.00;101228.72;5135480;27;20053;-76
2023/01/07 03:05:50;;;;;;;18.27;6.68;;;;;;;10.97;100.00;101219.59;5114795;27;20063;-76
2023/01/07 03:08:54;;;;;;;13.73;6.05;;;;;;;11.03;100.00;101216.41;5132742;27;20474;-76
2023/01/07 03:11:23;;;;;;;18.83;7.13;;;;;;;11.06;100.00;101220.78;5129224;27;20076;-76
2023/01/07 03:14:05;;;;;;;9.43;6.13;;;;;;;11.01;100.00;101222.00;5116199;27;20048;-78
2023/01/07 03:16:40;;;;;;;13.02;6.72;;;;;;;10.98;100.00;101224.97;5114481;27;20027;-77
2023/01/07 03:19:11;;;;;;;8.70;6.10;;;;;;;10.90;100.00;101216.44;5120999;27;20027;-76
2023/01/07 03:21:37;;;;;;;10.35;6.18;;;;;;;10.86;100.00;101206.72;5100260;27;20113;-75
2023/01/07 03:24:05;;;;;;;15.57;6.43;;;;;;;10.81;100.00;101208.94;5099064;27;20041;-75
2023/01/07 03:26:34;;;;;;;14.80;6.75;;;;;;;10.92;100.00;101208.13;5116154;27;20054;-76
2023/01/07 03:29:03;;;;;;;12.77;6.45;;;;;;;10.92;100.00;101202.63;5116344;27;20027;-76
2023/01/07 03:31:30;;;;;;;13.75;6.47;;;;;;;10.99;100.00;101213.03;5135311;27;20110;-76
2023/01/07 03:34:02;;;;;;;11.55;6.15;;;;;;;11.00;100.00;101213.91;5086423;27;20401;-76
2023/01/07 03:36:33;;;;;;;10.57;6.18;;;;;;;10.99;100.00;101203.94;5099241;27;20035;-76
2023/01/07 03:38:59;;;;;;;14.70;6.80;;;;;;;11.07;100.00;101201.50;5132060;27;20043;-76
2023/01/07 03:44:09;;;;;;;11.15;5.78;;;;;;;11.13;100.00;101190.03;5116813;27;20039;-76
2023/01/07 03:46:36;;;;;;;11.45;6.35;;;;;;;11.16;100.00;101186.22;5116195;27;20064;-76
2023/01/07 03:49:01;;;;;;;16.63;6.20;;;;;;;11.10;100.00;101186.66;5117945;27;20534;-76
2023/01/07 03:51:27;;;;;;;11.10;5.75;;;;;;;11.14;100.00;101175.38;5139349;27;20032;-76
2023/01/07 03:53:52;;;;;;;11.77;5.80;;;;;;;11.14;100.00;101180.84;5116303;27;20077;-76
2023/01/07 03:56:18;;;;;;;15.10;5.70;;;;;;;11.07;100.00;101185.06;5111136;27;20070;-76
2023/01/07 03:58:43;;;;;;;17.63;5.95;;;;;;;11.11;100.00;101181.06;5111811;27;20050;-77
2023/01/07 04:01:09;;;;;;;12.68;6.00;;;;;;;11.08;100.00;101170.34;5117245;27;20035;-77
2023/01/07 04:03:34;;;;;;;17.17;5.22;;;;;;;11.12;100.00;101169.13;5116972;27;20035;-77
2023/01/07 04:06:00;;;;;;;11.57;5.13;;;;;;;11.01;100.00;101169.94;5135334;27;20035;-77
2023/01/07 04:08:25;;;;;;;12.07;5.10;;;;;;;10.99;100.00;101163.72;5118020;27;20058;-77
2023/01/07 04:10:50;;;;;;;17.63;5.75;;;;;;;11.05;100.00;101176.06;5115340;27;20031;-77
2023/01/07 04:13:16;;;;;;;8.68;5.15;;;;;;;11.02;100.00;101165.34;5099640;27;20114;-77
2023/01/07 04:15:43;;;;;;;15.75;5.00;;;;;;;11.15;100.00;101166.16;5133702;27;20046;-77
2023/01/07 04:18:09;;;;;;;8.15;5.15;;;;;;;11.06;100.00;101157.78;5110712;28;20040;-77
2023/01/07 04:20:34;;;;;;;9.88;5.20;;;;;;;10.96;100.00;101152.13;5132752;27;20031;-77
2023/01/07 04:23:00;;;;;;;10.25;5.70;;;;;;;11.01;100.00;101153.50;5114687;27;20031;-76
2023/01/07 04:25:25;;;;;;;11.02;5.82;;;;;;;10.98;100.00;101152.88;5114055;27;20118;-77
2023/01/07 04:27:50;;;;;;;8.10;4.55;;;;;;;10.92;100.00;101145.09;5113575;27;20031;-76
2023/01/07 04:30:16;;;;;;;12.25;5.10;;;;;;;10.88;100.00;101143.59;5115967;27;20096;-77
2023/01/07 04:32:41;;;;;;;11.27;5.50;;;;;;;10.84;100.00;101140.22;5113015;28;20675;-77
2023/01/07 04:35:08;;;;;;;9.55;5.18;;;;;;;10.75;100.00;101128.09;5092402;28;20425;-77
2023/01/07 04:37:33;;;;;;;9.63;5.68;;;;;;;10.86;100.00;101130.03;5126410;27;20088;-77
2023/01/07 04:39:59;;;;;;;8.55;5.10;;;;;;;10.92;100.00;101136.88;5133938;27;20103;-77
2023/01/07 04:42:24;;;;;;;14.80;5.82;;;;;;;10.78;100.00;101124.25;5124748;27;20051;-77
2023/01/07 04:44:49;;;;;;;15.27;5.63;;;;;;;10.83;100.00;101122.91;5097576;27;20046;-77
2023/01/07 04:47:15;;;;;;;11.15;5.75;;;;;;;10.73;100.00;101127.34;5116300;28;20035;-77
2023/01/07 04:49:40;;;;;;;10.90;5.00;;;;;;;10.70;100.00;101123.97;5115413;27;20039;-77
2023/01/07 04:52:07;;;;;;;12.07;5.18;;;;;;;10.66;100.00;101126.06;5099435;28;20462;-77
2023/01/07 04:54:33;;;;;;;16.85;5.28;;;;;;;10.71;100.00;101122.94;5134042;27;20164;-77
2023/01/07 04:56:58;;;;;;;9.68;4.88;;;;;;;10.65;100.00;101114.22;5133424;27;20066;-76
2023/01/07 04:59:24;;;;;;;9.93;5.20;;;;;;;10.70;100.00;101102.91;5093978;28;20036;-76
2023/01/07 05:01:49;;;;;;;13.95;5.00;;;;;;;10.75;100.00;101106.19;5114424;28;20042;-77
2023/01/07 05:04:15;;;;;;;9.25;4.70;;;;;;;10.81;100.00;101099.38;5114216;27;20039;-76
2023/01/07 05:06:40;;;;;;;9.77;4.80;;;;;;;10.79;100.00;101107.72;5114662;28;20071;-77
2023/01/07 05:09:05;;;;;;;8.23;4.85;;;;;;;10.85;100.00;101111.84;5079516;28;20157;-77
2023/01/07 05:11:31;;;;;;;9.75;4.70;;;;;;;10.82;100.00;101096.53;5133575;28;20466;-77
2023/01/07 05:13:59;;;;;;;9.73;4.70;;;;;;;10.79;100.00;101095.84;5131753;27;20039;-76
2023/01/07 05:16:24;;;;;;;8.93;4.47;;;;;;;10.76;100.00;101090.66;5115680;28;20031;-77
2023/01/07 05:18:50;;;;;;;8.07;4.53;;;;;;;10.78;100.00;101086.78;5133429;27;20080;-76
2023/01/07 05:21:16;;;;;;;8.63;4.20;;;;;;;10.83;100.00;101091.91;5133250;28;20046;-77
2023/01/07 05:23:42;;;;;;;12.32;4.82;;;;;;;10.85;100.00;101085.34;5091450;28;20039;-77
2023/01/07 05:26:08;;;;;;;11.13;4.20;;;;;;;10.78;100.00;101074.97;5131113;28;20363;-77
2023/01/07 05:28:33;;;;;;;9.38;4.30;;;;;;;10.90;100.00;101079.47;5129940;27;20466;-77
2023/01/07 05:30:59;;;;;;;7.45;4.25;;;;;;;10.87;100.00;101076.09;5097005;27;20083;-77
2023/01/07 05:33:24;;;;;;;7.63;3.92;;;;;;;10.78;100.00;101078.56;5100374;28;20478;-77
2023/01/07 05:35:49;;;;;;;7.07;4.10;;;;;;;10.81;100.00;101078.31;5093870;28;20111;-77
2023/01/07 05:38:15;;;;;;;5.80;3.88;;;;;;;10.83;100.00;101075.47;5095269;28;20051;-77
2023/01/07 05:40:41;;;;;;;11.98;4.50;;;;;;;10.81;100.00;101078.31;5094313;28;20039;-77
2023/01/07 05:43:06;;;;;;;5.75;3.88;;;;;;;10.84;100.00;101075.34;5111966;28;20106;-77
2023/01/07 05:45:32;;;;;;;11.02;3.67;;;;;;;10.87;100.00;101078.84;5114844;28;20106;-77
2023/01/07 05:47:57;;;;;;;8.68;4.15;;;;;;;10.87;100.00;101078.84;5129797;27;20128;-77
2023/01/07 05:50:24;;;;;;;7.53;3.65;;;;;;;10.97;100.00;101074.41;5133380;27;20042;-77
2023/01/07 05:52:50;;;;;;;9.05;3.63;;;;;;;10.90;100.00;101067.66;5102152;27;20046;-76
2023/01/07 05:55:16;;;;;;;8.82;3.53;;;;;;;10.88;100.00;101069.66;5118462;27;20176;-77
2023/01/07 05:57:41;;;;;;;8.02;3.95;;;;;;;11.05;100.00;101074.69;5116814;27;20159;-77
2023/01/07 06:00:09;;;;;;;11.77;3.80;;;;;;;10.94;100.00;101077.41;5135568;27;20031;-76
2023/01/07 06:02:35;;;;;;;10.30;3.03;;;;;;;10.88;100.00;101065.03;5116818;27;20035;-77
2023/01/07 06:05:01;;;;;;;4.38;2.95;;;;;;;10.99;100.00;101072.44;5101277;27;20040;-77
2023/01/07 06:07:27;;;;;;;11.70;3.90;;;;;;;11.01;100.00;101060.34;5109448;27;20036;-76
2023/01/07 06:09:52;;;;;;;7.03;3.05;;;;;;;10.97;100.00;101058.84;5101730;27;20039;-76
2023/01/07 06:12:17;;;;;;;5.50;2.70;;;;;;;10.95;100.00;101065.44;5118571;27;20039;-76
2023/01/07 06:14:43;;;;;;;7.40;2.75;;;;;;;10.98;100.00;101065.19;5136353;27;20027;-76
2023/01/07 06:17:08;;;;;;;9.65;3.22;;;;;;;10.96;100.00;101057.09;5101485;27;20497;-76
2023/01/07 06:19:34;;;;;;;5.70;2.80;;;;;;;10.93;100.00;101056.47;5096640;28;20074;-76
2023/01/07 06:21:59;;;;;;;5.28;2.72;;;;;;;10.96;100.00;101057.09;5124419;27;20035;-76
2023/01/07 06:24:24;;;;;;;5.00;2.40;;;;;;;10.95;100.00;101043.50;5127330;27;20042;-76
2023/01/07 06:26:50;;;;;;;8.05;2.20;;;;;;;10.91;100.00;101044.75;5118458;27;20043;-76
2023/01/07 06:29:15;;;;;;;7.05;2.67;;;;;;;11.01;100.00;101041.16;5115036;27;20478;-77
2023/01/07 06:31:41;;;;;;;4.90;2.90;;;;;;;11.06;100.00;101034.47;5102060;27;20038;-76
2023/01/07 06:34:06;;;;;;;4.82;2.80;;;;;;;11.07;100.00;101038.94;5098911;27;20140;-77
2023/01/07 06:36:32;;;;;;;2.58;2.28;;;;;;;11.03;100.00;101032.81;5100289;27;20394;-77
2023/01/07 06:38:57;;;;;;;7.30;2.00;;;;;;;10.96;100.00;101042.53;5100875;27;20427;-77
2023/01/07 06:41:23;;;;;;;1.95;1.67;;;;;;;10.93;100.00;101040.88;5110603;27;20525;-76
2023/01/07 06:43:48;;;;;;;3.70;1.90;;;;;;;10.99;100.00;101026.72;5134927;27;20542;-76
2023/01/07 06:46:13;;;;;;;3.72;2.05;;;;;;;10.96;100.00;101026.09;5116126;27;20035;-76
2023/01/07 06:48:39;;;;;;;3.13;2.13;;;;;;;10.98;100.00;101024.97;5133261;27;20389;-76
2023/01/07 06:51:04;;;;;;;5.18;2.22;;;;;;;10.93;100.00;101018.13;5099494;27;20394;-76
2023/01/07 06:53:30;;;;;;;4.38;1.95;;;;;;;10.96;100.00;101006.91;5098197;27;20471;-76
2023/01/07 06:55:55;;;;;;;3.30;1.85;;;;;;;10.93;100.00;101009.88;5102377;27;20042;-76
2023/01/07 06:58:21;;;;;;;2.58;1.50;;;;;;;10.88;100.00;101001.16;5136026;27;20106;-76
2023/01/07 07:00:46;;;;;;;3.63;1.83;;;;;;;10.84;100.00;100990.44;5110721;27;20114;-76
2023/01/07 07:03:12;;;;;;;5.43;1.77;;;;;;;10.89;100.00;100997.41;5116162;27;20410;-76
2023/01/07 07:05:37;;;;;;;4.65;1.70;;;;;;;10.97;100.00;100987.63;5116543;27;20027;-76
2023/01/07 07:08:04;;;;;;;3.05;1.67;;;;;;;10.89;100.00;100989.19;5131487;27;20080;-76
2023/01/07 07:10:29;;;;;;;4.28;1.83;;;;;;;10.94;100.00;100987.00;5099734;27;20431;-77
2023/01/07 07:12:54;;;;;;;3.40;1.73;;;;;;;11.03;100.00;100986.25;5135064;27;20100;-76
2023/01/07 07:15:20;;;;;;;4.15;1.77;;;;;;;10.90;100.00;100980.00;5121129;27;20067;-76
2023/01/07 07:17:45;;;;;;;3.33;1.80;;;;;;;10.94;100.00;100981.50;5114951;27;20603;-76
2023/01/07 07:20:11;;;;;;;4.55;2.25;;;;;;;10.94;100.00;100976.03;5071083;28;20036;-77
2023/01/07 07:22:36;;;;;;;3.05;1.80;;;;;;;11.02;100.00;100973.56;5116699;27;20083;-76
2023/01/07 07:25:03;;;;;;;6.03;1.95;;;;;;;10.96;100.00;100982.25;5100026;27;20059;-76
2023/01/07 07:27:28;;;;;;;2.92;1.60;;;;;;;10.84;100.00;100976.75;5098765;27;20127;-76
2023/01/07 07:29:54;;;;;;;4.88;2.03;;;;;;;10.74;100.00;100975.72;5099010;27;20511;-76
2023/01/07 07:32:19;;;;;;;4.93;1.60;;;;;;;10.83;100.00;100983.22;5084166;27;20382;-76
2023/01/07 07:34:44;;;;;;;4.68;1.70;;;;;;;10.83;100.00;100977.72;5115189;27;20108;-76
2023/01/07 07:37:10;;;;;;;2.58;1.80;;;;;;;10.84;100.00;100974.00;5134364;27;20383;-77
2023/01/07 07:39:36;;;;;;;3.25;1.70;;;;;;;10.88;100.00;100966.41;5098681;27;20083;-76
2023/01/07 07:42:03;;;;;;;5.47;1.90;;;;;;;10.90;100.00;100977.25;5114368;27;20035;-76
2023/01/07 07:44:29;;;;;;;3.13;1.40;;;;;;;10.75;100.00;100973.84;5113829;27;20041;-77
2023/01/07 07:46:54;;;;;;;5.10;1.60;;;;;;;10.83;100.00;100974.13;5114364;27;20043;-77
2023/01/07 07:49:20;;;;;;;2.25;1.38;;;;;;;10.89;100.00;100970.91;5097267;27;20031;-76
2023/01/07 07:51:45;;;;;;;1.63;1.50;;;;;;;10.85;100.00;100974.88;5115284;27;20039;-76
2023/01/07 07:54:10;;;;;;;3.63;1.77;;;;;;;10.88;100.00;100971.03;5102142;27;21192;-76
2023/01/07 07:56:36;;;;;;;3.58;1.70;;;;;;;10.88;100.00;100969.16;5111626;27;20027;-76
2023/01/07 07:59:01;;;;;;;8.85;1.67;;;;;;;10.75;100.00;100960.16;5134120;27;20114;-76
2023/01/07 08:01:27;;;;;;;7.82;2.10;;;;;;;10.93;100.00;100975.13;5111778;27;20031;-77
2023/01/07 08:03:52;;;;;;;7.47;1.80;;;;;;;10.84;100.00;100963.06;5133846;27;20397;-77
2023/01/07 08:06:17;;;;;;;3.05;1.55;;;;;;;10.79;100.00;100962.53;5090345;27;20028;-77
2023/01/07 08:08:43;;;;;;;2.30;1.40;;;;;;;10.82;100.00;100954.09;5131372;27;20043;-77
2023/01/07 08:11:08;;;;;;;3.97;1.55;;;;;;;10.86;100.00;100960.19;5092254;27;20046;-77
2023/01/07 08:13:34;;;;;;;3.70;1.65;;;;;;;10.86;100.00;100951.97;5082247;27;20058;-77
2023/01/07 08:15:59;;;;;;;3.42;1.63;;;;;;;10.92;100.00;100950.59;5098492;27;20122;-77
2023/01/07 08:18:25;;;;;;;6.05;1.58;;;;;;;10.87;100.00;100953.72;5134953;27;20446;-76
2023/01/07 08:20:50;;;;;;;1.83;1.50;;;;;;;10.93;100.00;100939.53;5113405;27;20035;-77
2023/01/07 08:23:16;;;;;;;2.50;1.38;;;;;;;10.95;100.00;100943.03;5117587;27;20088;-76
2023/01/07 08:25:41;;;;;;;4.00;1.63;;;;;;;10.97;100.00;100934.66;5097809;27;20102;-76
2023/01/07 08:28:09;;;;;;;2.00;1.58;;;;;;;10.94;100.00;100929.47;5116045;27;20027;-76
2023/01/07 08:30:35;;;;;;;4.35;1.30;;;;;;;10.96;100.00;100927.47;5132089;27;20024;-76
2023/01/07 08:33:03;;;;;;;2.25;1.40;;;;;;;11.02;100.00;100924.25;5097628;27;20702;-77
2023/01/07 08:35:28;;;;;;;3.03;1.38;;;;;;;11.06;100.00;100928.47;5115662;27;20035;-77
2023/01/07 08:38:07;;;;;;;2.42;1.42;;;;;;;11.06;100.00;100923.00;5115871;27;20587;-77
2023/01/07 08:40:35;;;;;;;3.33;1.40;;;;;;;10.99;100.00;100919.88;5114882;27;20035;-77
2023/01/07 08:43:03;;;;;;;1.70;1.10;;;;;;;11.16;100.00;100923.97;5096213;27;20421;-77
2023/01/07 08:45:29;;;;;;;2.80;1.58;;;;;;;11.12;100.00;100924.38;5110738;28;20471;-77
2023/01/07 08:47:56;;;;;;;2.45;1.20;;;;;;;11.04;100.00;100928.59;5114366;27;20069;-76
2023/01/07 08:50:27;;;;;;;4.07;1.52;;;;;;;11.13;100.00;100913.25;5132687;27;20039;-76
2023/01/07 08:52:53;;;;;;;3.63;1.48;;;;;;;11.15;100.00;100922.25;5095312;28;20118;-76
2023/01/07 08:55:18;;;;;;;5.20;1.38;;;;;;;11.19;100.00;100915.50;5114762;27;20122;-76
2023/01/07 08:57:46;;;;;;;2.78;1.10;;;;;;;11.29;100.00;100925.75;5114381;27;20053;-76
2023/01/07 09:00:13;;;;;;;3.95;1.35;;;;;;;11.25;100.00;100919.66;5095803;28;20122;-76
2023/01/07 09:02:38;;;;;;;3.28;1.23;;;;;;;11.26;100.00;100915.03;5106785;28;20084;-76
2023/01/07 09:05:04;;;;;;;3.53;1.10;;;;;;;11.30;100.00;100909.19;5112713;27;20031;-77
2023/01/07 09:07:30;;;;;;;1.50;1.13;;;;;;;11.34;100.00;100909.78;5132470;27;20413;-79
2023/01/07 09:09:55;;;;;;;1.20;1.10;;;;;;;11.29;100.00;100909.31;5093263;28;20031;-77
2023/01/07 09:12:21;;;;;;;5.70;1.40;;;;;;;11.38;100.00;100909.41;5095394;27;20048;-77
2023/01/07 09:14:46;;;;;;;3.17;1.13;;;;;;;11.37;100.00;100912.28;5092646;28;20035;-77
2023/01/07 09:17:12;;;;;;;1.40;1.02;;;;;;;11.29;100.00;100910.16;5114249;27;20114;-77
2023/01/07 09:19:37;;;;;;;2.65;1.10;;;;;;;11.41;100.00;100911.03;5111074;28;20062;-77
2023/01/07 09:22:03;;;;;;;3.50;1.40;;;;;;;11.45;100.00;100906.19;5115422;28;20063;-78
2023/01/07 09:24:28;;;;;;;1.85;1.23;;;;;;;11.38;100.00;100903.94;5114878;27;20073;-77
2023/01/07 09:26:53;;;;;;;1.85;1.00;;;;;;;11.38;100.00;100900.34;5137935;27;20034;-77
2023/01/07 09:29:19;;;;;;;2.85;1.70;;;;;;;11.46;100.00;100892.34;5120395;27;20401;-77
2023/01/07 09:31:44;;;;;;;2.47;1.30;;;;;;;11.36;100.00;100891.34;5120949;27;20030;-77
2023/01/07 09:34:10;;;;;;;3.58;1.23;;;;;;;11.52;100.00;100880.00;5085248;27;20043;-77
2023/01/07 09:36:35;;;;;;;13.60;1.70;;;;;;;11.56;100.00;100884.25;5101244;27;20038;-77
2023/01/07 09:39:00;;;;;;;5.35;1.38;;;;;;;11.54;100.00;100880.72;5121599;27;20462;-77
2023/01/07 09:41:47;;;;;;;6.57;1.30;;;;;;;11.58;100.00;100876.75;5121708;27;20042;-77
2023/01/07 09:44:27;;;;;;;2.13;1.00;;;;;;;11.59;100.00;100872.97;5140778;27;20102;-79
2023/01/07 09:46:55;;;;;;;1.55;0.90;;;;;;;11.70;100.00;100877.59;5111373;28;20545;-78
2023/01/07 09:49:27;;;;;;;5.65;1.35;;;;;;;11.62;100.00;100872.72;5134045;27;20062;-77
2023/01/07 09:52:03;;;;;;;6.10;1.70;;;;;;;11.71;100.00;100871.97;5101331;27;20042;-77
2023/01/07 09:54:32;;;;;;;2.40;1.27;;;;;;;11.68;100.00;100868.63;5119364;27;20495;-82
2023/01/07 09:56:58;;;;;;;2.03;1.38;;;;;;;11.86;100.00;100858.84;5110502;27;20019;-82
2023/01/07 09:59:24;;;;;;;4.15;1.48;;;;;;;11.92;100.00;100866.59;5101095;27;20375;-81
2023/01/07 10:02:01;;;;;;;2.38;1.33;;;;;;;12.27;100.00;100879.16;5105992;27;20069;-82
2023/01/07 10:04:42;;;;;;;3.50;1.33;;;;;;;12.31;100.00;100864.19;5104521;27;20026;-81
2023/01/07 10:07:27;;;;;;;3.35;1.42;;;;;;;12.29;100.00;100871.66;5113726;27;20045;-81
2023/01/07 10:09:53;;;;;;;3.38;1.20;;;;;;;12.42;100.00;100865.13;5101455;27;20031;-82
2023/01/07 10:12:21;;;;;;;1.20;0.95;;;;;;;12.34;100.00;100857.53;5106235;27;20034;-82
2023/01/07 10:15:04;;;;;;;2.90;1.00;;;;;;;12.36;100.00;100857.41;5139172;27;20034;-82
2023/01/07 10:18:04;;;;;;;2.97;1.10;;;;;;;12.47;100.00;100836.22;5103865;27;20034;-82
2023/01/07 10:20:53;;;;;;;2.97;1.05;;;;;;;12.48;100.00;100837.13;5123169;27;20172;-82
2023/01/07 10:23:22;;;;;;;6.20;1.00;;;;;;;12.54;100.00;100835.72;5121672;27;20027;-82
2023/01/07 10:25:54;;;;;;;3.88;1.00;;;;;;;12.34;100.00;100830.09;5126879;27;20031;-83
2023/01/07 10:28:30;;;;;;;2.63;1.00;;;;;;;12.55;100.00;100821.84;5103853;27;20091;-82
2023/01/07 10:30:57;;;;;;;2.65;1.00;;;;;;;12.37;100.00;100805.09;5120982;27;20091;-82
2023/01/07 10:33:27;;;;;;;2.85;0.98;;;;;;;12.54;100.00;100814.59;5094500;27;20435;-82
2023/01/07 10:36:21;;;;;;;1.10;0.82;;;;;;;12.60;100.00;100805.81;5132305;27;20087;-82
2023/01/07 10:39:10;;;;;;;4.97;1.13;;;;;;;12.69;100.00;100791.28;5088807;27;20054;-82
2023/01/07 10:41:47;;;;;;;5.13;1.10;;;;;;;12.65;100.00;100783.44;5120392;27;20550;-81
2023/01/07 10:44:24;;;;;;;3.25;1.40;;;;;;;12.68;100.00;100772.19;5120721;27;20055;-81
2023/01/07 10:47:06;;;;;;;2.67;2.10;;;;;;;12.70;100.00;100764.66;5121275;27;20114;-82
2023/01/07 10:49:56;;;;;;;1.52;1.05;;;;;;;12.51;100.00;100762.72;5120518;27;20246;-82
2023/01/07 10:52:30;;;;;;;3.10;1.08;;;;;;;12.56;100.00;100754.03;5114642;27;20057;-81
2023/01/07 10:55:12;;;;;;;1.73;0.80;;;;;;;12.58;100.00;100752.91;5143006;27;20122;-81
2023/01/07 10:57:37;;;;;;;1.60;0.88;;;;;;;12.29;100.00;100745.38;5119412;27;20037;-81
2023/01/07 11:00:09;;;;;;;2.00;1.55;;;;;;;12.33;100.00;100743.25;5137749;27;20118;-82
2023/01/07 11:02:36;;;;;;;2.60;0.80;;;;;;;12.44;100.00;100734.91;5139212;27;20052;-81
2023/01/07 11:05:01;;;;;;;4.05;2.80;;;;;;;12.28;100.00;100732.66;5120286;27;20058;-81
2023/01/07 11:07:29;;;;;;;1.13;0.80;;;;;;;12.38;100.00;100734.56;5119688;27;20031;-81
2023/01/07 11:09:57;;;;;;;4.20;1.08;;;;;;;12.35;100.00;100718.38;5113283;27;20047;-81
2023/01/07 11:12:22;;;;;;;3.03;0.90;;;;;;;12.36;100.00;100728.34;5137605;27;20114;-81
2023/01/07 11:14:49;;;;;;;2.70;1.02;;;;;;;12.27;100.00;100719.06;5139036;27;20070;-82
2023/01/07 11:17:42;;;;;;;1.40;0.80;;;;;;;12.25;100.00;100719.22;5134945;27;20027;-82
2023/01/07 11:20:08;;;;;;;1.13;0.98;;;;;;;12.44;100.00;100710.19;5117862;27;20405;-80
2023/01/07 11:22:36;;;;;;;1.98;0.95;;;;;;;12.64;100.00;100708.41;5099136;27;20035;-80
2023/01/07 11:25:28;;;;;;;1.02;0.77;;;;;;;12.61;100.00;100703.19;5102130;27;20028;-80